sensor_id;sensor_type;location;lat;lon;timestamp;P1;durP1;ratioP1;P2;durP2;ratioP2
70675;SDS011;59069;52.242;20.900;2022-12-29T00:01:47;10.87;;;4.23;;
70675;SDS011;59069;52.242;20.900;2022-12-29T00:04:13;13.68;;;4.85;;
70675;SDS011;59069;52.242;20.900;2022-12-29T00:06:40;11.40;;;3.63;;
70675;SDS011;59069;52.242;20.900;2022-12-29T00:09:06;10.85;;;4.28;;
70675;SDS011;59069;52.242;20.900;2022-12-29T00:11:32;11.23;;;4.05;;
70675;SDS011;59069;52.242;20.900;2022-12-29T00:13:57;10.47;;;3.70;;
70675;SDS011;59069;52.242;20.900;2022-12-29T00:16:42;11.40;;;4.65;;
70675;SDS011;59069;52.242;20.900;2022-12-29T00:19:10;12.32;;;4.03;;
70675;SDS011;59069;52.242;20.900;2022-12-29T00:21:57;11.77;;;4.20;;
70675;SDS011;59069;52.242;20.900;2022-12-29T00:24:42;11.67;;;3.90;;
70675;SDS011;59069;52.242;20.900;2022-12-29T00:27:20;11.48;;;4.25;;
70675;SDS011;59069;52.242;20.900;2022-12-29T00:30:08;10.18;;;3.60;;
70675;SDS011;59069;52.242;20.900;2022-12-29T00:32:53;12.27;;;4.07;;
70675;SDS011;59069;52.242;20.900;2022-12-29T00:35:38;10.32;;;4.00;;
70675;SDS011;59069;52.242;20.900;2022-12-29T00:38:09;11.57;;;4.17;;
70675;SDS011;59069;52.242;20.900;2022-12-29T00:40:55;9.95;;;3.92;;
70675;SDS011;59069;52.242;20.900;2022-12-29T00:43:38;11.48;;;4.05;;
70675;SDS011;59069;52.242;20.900;2022-12-29T00:46:22;9.75;;;4.10;;
70675;SDS011;59069;52.242;20.900;2022-12-29T00:48:48;11.20;;;4.10;;
70675;SDS011;59069;52.242;20.900;2022-12-29T00:51:32;10.70;;;3.90;;
70675;SDS011;59069;52.242;20.900;2022-12-29T00:53:58;10.48;;;3.70;;
70675;SDS011;59069;52.242;20.900;2022-12-29T00:56:24;10.00;;;3.87;;
70675;SDS011;59069;52.242;20.900;2022-12-29T00:58:49;9.20;;;3.30;;
70675;SDS011;59069;52.242;20.900;2022-12-29T01:01:15;11.00;;;3.53;;
70675;SDS011;59069;52.242;20.900;2022-12-29T01:03:41;11.63;;;3.93;;
70675;SDS011;59069;52.242;20.900;2022-12-29T01:06:08;11.37;;;3.70;;
70675;SDS011;59069;52.242;20.900;2022-12-29T01:08:35;10.13;;;3.35;;
70675;SDS011;59069;52.242;20.900;2022-12-29T01:11:05;10.75;;;4.03;;
70675;SDS011;59069;52.242;20.900;2022-12-29T01:13:31;12.17;;;3.73;;
70675;SDS011;59069;52.242;20.900;2022-12-29T01:15:57;10.38;;;3.40;;
70675;SDS011;59069;52.242;20.900;2022-12-29T01:18:23;9.02;;;3.20;;
70675;SDS011;59069;52.242;20.900;2022-12-29T01:20:50;8.02;;;2.85;;
70675;SDS011;59069;52.242;20.900;2022-12-29T01:23:16;9.23;;;3.40;;
70675;SDS011;59069;52.242;20.900;2022-12-29T01:25:42;10.32;;;3.30;;
70675;SDS011;59069;52.242;20.900;2022-12-29T01:28:07;11.25;;;3.63;;
70675;SDS011;59069;52.242;20.900;2022-12-29T01:30:36;12.13;;;3.83;;
70675;SDS011;59069;52.242;20.900;2022-12-29T01:33:02;11.85;;;4.00;;
70675;SDS011;59069;52.242;20.900;2022-12-29T01:35:28;9.50;;;3.15;;
70675;SDS011;59069;52.242;20.900;2022-12-29T01:37:53;10.67;;;3.37;;
70675;SDS011;59069;52.242;20.900;2022-12-29T01:40:19;9.50;;;3.35;;
70675;SDS011;59069;52.242;20.900;2022-12-29T01:42:45;8.47;;;2.87;;
70675;SDS011;59069;52.242;20.900;2022-12-29T01:47:38;10.03;;;3.17;;
70675;SDS011;59069;52.242;20.900;2022-12-29T01:55:54;9.57;;;3.22;;
70675;SDS011;59069;52.242;20.900;2022-12-29T01:58:30;9.18;;;3.25;;
70675;SDS011;59069;52.242;20.900;2022-12-29T02:01:03;9.90;;;3.00;;
70675;SDS011;59069;52.242;20.900;2022-12-29T02:03:29;10.02;;;3.28;;
70675;SDS011;59069;52.242;20.900;2022-12-29T02:06:15;10.77;;;3.75;;
70675;SDS011;59069;52.242;20.900;2022-12-29T02:08:46;9.93;;;3.53;;
70675;SDS011;59069;52.242;20.900;2022-12-29T02:11:12;8.38;;;3.03;;
70675;SDS011;59069;52.242;20.900;2022-12-29T02:13:38;9.70;;;3.13;;
70675;SDS011;59069;52.242;20.900;2022-12-29T02:37:48;8.88;;;2.90;;
70675;SDS011;59069;52.242;20.900;2022-12-29T02:40:24;8.90;;;3.22;;
70675;SDS011;59069;52.242;20.900;2022-12-29T02:45:49;8.55;;;2.97;;
70675;SDS011;59069;52.242;20.900;2022-12-29T02:48:23;9.63;;;3.10;;
70675;SDS011;59069;52.242;20.900;2022-12-29T02:51:02;9.50;;;2.72;;
70675;SDS011;59069;52.242;20.900;2022-12-29T02:53:32;9.88;;;3.30;;
70675;SDS011;59069;52.242;20.900;2022-12-29T02:56:18;10.68;;;3.22;;
70675;SDS011;59069;52.242;20.900;2022-12-29T02:58:44;9.88;;;2.88;;
70675;SDS011;59069;52.242;20.900;2022-12-29T03:12:49;9.40;;;3.03;;
70675;SDS011;59069;52.242;20.900;2022-12-29T03:16:35;7.20;;;2.65;;
70675;SDS011;59069;52.242;20.900;2022-12-29T03:18:51;7.43;;;2.65;;
70675;SDS011;59069;52.242;20.900;2022-12-29T03:21:43;7.82;;;2.83;;
70675;SDS011;59069;52.242;20.900;2022-12-29T03:24:32;10.13;;;3.00;;
70675;SDS011;59069;52.242;20.900;2022-12-29T03:27:04;8.68;;;2.92;;
70675;SDS011;59069;52.242;20.900;2022-12-29T03:29:33;9.40;;;3.35;;
70675;SDS011;59069;52.242;20.900;2022-12-29T03:32:04;10.35;;;2.95;;
70675;SDS011;59069;52.242;20.900;2022-12-29T03:34:32;9.00;;;2.70;;
70675;SDS011;59069;52.242;20.900;2022-12-29T03:37:05;9.83;;;2.50;;
70675;SDS011;59069;52.242;20.900;2022-12-29T03:39:36;8.88;;;2.53;;
70675;SDS011;59069;52.242;20.900;2022-12-29T03:42:03;11.30;;;3.00;;
70675;SDS011;59069;52.242;20.900;2022-12-29T03:44:37;10.18;;;2.90;;
70675;SDS011;59069;52.242;20.900;2022-12-29T03:47:06;8.00;;;2.85;;
70675;SDS011;59069;52.242;20.900;2022-12-29T03:49:33;9.03;;;2.50;;
70675;SDS011;59069;52.242;20.900;2022-12-29T03:51:58;8.27;;;3.10;;
70675;SDS011;59069;52.242;20.900;2022-12-29T03:54:24;9.18;;;2.90;;
70675;SDS011;59069;52.242;20.900;2022-12-29T03:56:50;10.37;;;2.93;;
70675;SDS011;59069;52.242;20.900;2022-12-29T03:59:15;10.73;;;3.13;;
70675;SDS011;59069;52.242;20.900;2022-12-29T04:01:41;8.03;;;2.50;;
70675;SDS011;59069;52.242;20.900;2022-12-29T04:04:06;8.33;;;2.60;;
70675;SDS011;59069;52.242;20.900;2022-12-29T04:06:32;7.87;;;2.37;;
70675;SDS011;59069;52.242;20.900;2022-12-29T04:08:58;9.90;;;2.87;;
70675;SDS011;59069;52.242;20.900;2022-12-29T04:11:23;7.93;;;3.20;;
70675;SDS011;59069;52.242;20.900;2022-12-29T04:13:49;11.30;;;3.17;;
70675;SDS011;59069;52.242;20.900;2022-12-29T04:16:14;9.23;;;3.10;;
70675;SDS011;59069;52.242;20.900;2022-12-29T04:18:40;9.77;;;2.85;;
70675;SDS011;59069;52.242;20.900;2022-12-29T04:21:06;10.50;;;3.23;;
70675;SDS011;59069;52.242;20.900;2022-12-29T04:23:32;9.68;;;3.13;;
70675;SDS011;59069;52.242;20.900;2022-12-29T04:25:59;10.75;;;3.20;;
70675;SDS011;59069;52.242;20.900;2022-12-29T04:28:26;9.60;;;2.90;;
70675;SDS011;59069;52.242;20.900;2022-12-29T04:30:52;8.48;;;2.60;;
70675;SDS011;59069;52.242;20.900;2022-12-29T04:33:18;10.32;;;3.50;;
70675;SDS011;59069;52.242;20.900;2022-12-29T04:35:43;7.93;;;2.90;;
70675;SDS011;59069;52.242;20.900;2022-12-29T04:38:09;9.25;;;2.90;;
70675;SDS011;59069;52.242;20.900;2022-12-29T04:40:37;9.02;;;2.92;;
70675;SDS011;59069;52.242;20.900;2022-12-29T04:43:03;8.30;;;3.03;;
70675;SDS011;59069;52.242;20.900;2022-12-29T04:45:29;10.20;;;3.03;;
70675;SDS011;59069;52.242;20.900;2022-12-29T04:47:55;8.70;;;3.17;;
70675;SDS011;59069;52.242;20.900;2022-12-29T04:50:20;11.57;;;3.27;;
70675;SDS011;59069;52.242;20.900;2022-12-29T04:52:46;9.40;;;3.23;;
70675;SDS011;59069;52.242;20.900;2022-12-29T04:55:12;9.40;;;3.10;;
70675;SDS011;59069;52.242;20.900;2022-12-29T04:57:37;8.70;;;3.30;;
70675;SDS011;59069;52.242;20.900;2022-12-29T05:00:03;10.48;;;3.10;;
70675;SDS011;59069;52.242;20.900;2022-12-29T05:02:30;10.60;;;3.35;;
70675;SDS011;59069;52.242;20.900;2022-12-29T05:04:55;10.17;;;3.87;;
70675;SDS011;59069;52.242;20.900;2022-12-29T05:07:21;10.10;;;3.40;;
70675;SDS011;59069;52.242;20.900;2022-12-29T05:09:46;10.27;;;3.43;;
70675;SDS011;59069;52.242;20.900;2022-12-29T05:12:12;10.37;;;3.43;;
70675;SDS011;59069;52.242;20.900;2022-12-29T05:14:38;11.45;;;3.70;;
70675;SDS011;59069;52.242;20.900;2022-12-29T05:17:03;13.73;;;3.97;;
70675;SDS011;59069;52.242;20.900;2022-12-29T05:19:29;10.85;;;3.90;;
70675;SDS011;59069;52.242;20.900;2022-12-29T05:21:55;10.93;;;3.50;;
70675;SDS011;59069;52.242;20.900;2022-12-29T05:24:21;12.13;;;4.00;;
70675;SDS011;59069;52.242;20.900;2022-12-29T05:26:46;11.27;;;3.80;;
70675;SDS011;59069;52.242;20.900;2022-12-29T05:29:12;9.50;;;3.40;;
70675;SDS011;59069;52.242;20.900;2022-12-29T05:31:38;12.57;;;4.27;;
70675;SDS011;59069;52.242;20.900;2022-12-29T05:34:03;11.07;;;3.83;;
70675;SDS011;59069;52.242;20.900;2022-12-29T05:36:29;12.80;;;4.03;;
70675;SDS011;59069;52.242;20.900;2022-12-29T05:38:55;12.20;;;3.92;;
70675;SDS011;59069;52.242;20.900;2022-12-29T05:41:21;14.32;;;4.03;;
70675;SDS011;59069;52.242;20.900;2022-12-29T05:43:46;13.13;;;4.67;;
70675;SDS011;59069;52.242;20.900;2022-12-29T05:46:12;8.90;;;3.53;;
70675;SDS011;59069;52.242;20.900;2022-12-29T05:48:37;12.95;;;4.32;;
70675;SDS011;59069;52.242;20.900;2022-12-29T05:51:03;13.67;;;4.10;;
70675;SDS011;59069;52.242;20.900;2022-12-29T05:53:29;12.65;;;4.03;;
70675;SDS011;59069;52.242;20.900;2022-12-29T05:55:54;12.47;;;3.50;;
70675;SDS011;59069;52.242;20.900;2022-12-29T05:58:20;11.90;;;3.40;;
70675;SDS011;59069;52.242;20.900;2022-12-29T06:00:46;11.83;;;4.37;;
70675;SDS011;59069;52.242;20.900;2022-12-29T06:03:11;9.80;;;3.57;;
70675;SDS011;59069;52.242;20.900;2022-12-29T06:05:37;11.20;;;3.70;;
70675;SDS011;59069;52.242;20.900;2022-12-29T06:08:03;12.90;;;4.57;;
70675;SDS011;59069;52.242;20.900;2022-12-29T06:10:29;10.40;;;3.97;;
70675;SDS011;59069;52.242;20.900;2022-12-29T06:12:54;12.68;;;4.18;;
70675;SDS011;59069;52.242;20.900;2022-12-29T06:15:20;12.50;;;4.43;;
70675;SDS011;59069;52.242;20.900;2022-12-29T06:17:46;10.63;;;4.40;;
70675;SDS011;59069;52.242;20.900;2022-12-29T06:20:11;11.10;;;3.80;;
70675;SDS011;59069;52.242;20.900;2022-12-29T06:22:37;14.23;;;4.85;;
70675;SDS011;59069;52.242;20.900;2022-12-29T06:25:03;11.63;;;3.57;;
70675;SDS011;59069;52.242;20.900;2022-12-29T06:27:30;10.20;;;3.97;;
70675;SDS011;59069;52.242;20.900;2022-12-29T06:29:56;10.90;;;4.03;;
70675;SDS011;59069;52.242;20.900;2022-12-29T06:32:21;13.80;;;4.57;;
70675;SDS011;59069;52.242;20.900;2022-12-29T06:34:47;11.65;;;4.22;;
70675;SDS011;59069;52.242;20.900;2022-12-29T06:37:13;13.73;;;4.20;;
70675;SDS011;59069;52.242;20.900;2022-12-29T06:39:39;10.38;;;3.75;;
70675;SDS011;59069;52.242;20.900;2022-12-29T06:42:05;11.30;;;3.78;;
70675;SDS011;59069;52.242;20.900;2022-12-29T06:44:31;12.27;;;4.20;;
70675;SDS011;59069;52.242;20.900;2022-12-29T06:46:56;14.63;;;4.15;;
70675;SDS011;59069;52.242;20.900;2022-12-29T06:49:22;9.67;;;3.93;;
70675;SDS011;59069;52.242;20.900;2022-12-29T06:51:48;11.07;;;3.92;;
70675;SDS011;59069;52.242;20.900;2022-12-29T06:54:13;12.47;;;4.23;;
70675;SDS011;59069;52.242;20.900;2022-12-29T06:56:39;11.07;;;4.15;;
70675;SDS011;59069;52.242;20.900;2022-12-29T06:59:05;10.73;;;4.07;;
70675;SDS011;59069;52.242;20.900;2022-12-29T07:01:30;10.95;;;3.65;;
70675;SDS011;59069;52.242;20.900;2022-12-29T07:03:56;11.20;;;4.27;;
70675;SDS011;59069;52.242;20.900;2022-12-29T07:06:22;11.93;;;3.95;;
70675;SDS011;59069;52.242;20.900;2022-12-29T07:08:48;10.73;;;4.15;;
70675;SDS011;59069;52.242;20.900;2022-12-29T07:11:14;10.57;;;3.67;;
70675;SDS011;59069;52.242;20.900;2022-12-29T07:13:39;11.40;;;3.78;;
70675;SDS011;59069;52.242;20.900;2022-12-29T07:16:06;11.00;;;3.53;;
70675;SDS011;59069;52.242;20.900;2022-12-29T07:18:33;9.57;;;3.20;;
70675;SDS011;59069;52.242;20.900;2022-12-29T07:20:58;10.07;;;3.83;;
70675;SDS011;59069;52.242;20.900;2022-12-29T07:23:24;10.10;;;3.47;;
70675;SDS011;59069;52.242;20.900;2022-12-29T07:25:50;12.57;;;3.90;;
70675;SDS011;59069;52.242;20.900;2022-12-29T07:28:15;10.33;;;3.80;;
70675;SDS011;59069;52.242;20.900;2022-12-29T07:30:41;11.75;;;3.42;;
70675;SDS011;59069;52.242;20.900;2022-12-29T07:33:06;11.67;;;4.00;;
70675;SDS011;59069;52.242;20.900;2022-12-29T07:35:35;12.47;;;4.07;;
70675;SDS011;59069;52.242;20.900;2022-12-29T07:38:01;10.25;;;3.13;;
70675;SDS011;59069;52.242;20.900;2022-12-29T07:40:26;10.73;;;3.33;;
70675;SDS011;59069;52.242;20.900;2022-12-29T07:42:52;12.17;;;3.23;;
70675;SDS011;59069;52.242;20.900;2022-12-29T07:45:17;9.87;;;3.37;;
70675;SDS011;59069;52.242;20.900;2022-12-29T07:47:43;10.98;;;3.35;;
70675;SDS011;59069;52.242;20.900;2022-12-29T07:50:12;9.05;;;3.45;;
70675;SDS011;59069;52.242;20.900;2022-12-29T07:52:37;9.50;;;3.50;;
70675;SDS011;59069;52.242;20.900;2022-12-29T07:55:03;11.63;;;3.55;;
70675;SDS011;59069;52.242;20.900;2022-12-29T07:57:29;10.87;;;3.33;;
70675;SDS011;59069;52.242;20.900;2022-12-29T07:59:55;10.90;;;3.00;;
70675;SDS011;59069;52.242;20.900;2022-12-29T08:02:20;9.77;;;3.63;;
70675;SDS011;59069;52.242;20.900;2022-12-29T08:04:46;9.88;;;3.42;;
70675;SDS011;59069;52.242;20.900;2022-12-29T08:07:12;10.00;;;3.07;;
70675;SDS011;59069;52.242;20.900;2022-12-29T08:09:37;11.23;;;3.43;;
70675;SDS011;59069;52.242;20.900;2022-12-29T08:12:03;10.13;;;3.20;;
70675;SDS011;59069;52.242;20.900;2022-12-29T08:14:28;9.43;;;3.30;;
70675;SDS011;59069;52.242;20.900;2022-12-29T08:16:54;10.65;;;3.55;;
70675;SDS011;59069;52.242;20.900;2022-12-29T08:19:20;13.57;;;3.43;;
70675;SDS011;59069;52.242;20.900;2022-12-29T08:21:45;9.50;;;3.13;;
70675;SDS011;59069;52.242;20.900;2022-12-29T08:24:11;9.37;;;3.40;;
70675;SDS011;59069;52.242;20.900;2022-12-29T08:26:36;11.33;;;3.30;;
70675;SDS011;59069;52.242;20.900;2022-12-29T08:29:02;11.40;;;3.53;;
70675;SDS011;59069;52.242;20.900;2022-12-29T08:31:28;7.70;;;2.67;;
70675;SDS011;59069;52.242;20.900;2022-12-29T08:33:53;9.35;;;3.13;;
70675;SDS011;59069;52.242;20.900;2022-12-29T08:36:19;10.10;;;3.43;;
70675;SDS011;59069;52.242;20.900;2022-12-29T08:38:45;10.48;;;3.40;;
70675;SDS011;59069;52.242;20.900;2022-12-29T08:41:11;11.27;;;2.87;;
70675;SDS011;59069;52.242;20.900;2022-12-29T08:43:36;10.27;;;3.20;;
70675;SDS011;59069;52.242;20.900;2022-12-29T08:46:02;7.90;;;3.00;;
70675;SDS011;59069;52.242;20.900;2022-12-29T08:48:27;8.20;;;3.13;;
70675;SDS011;59069;52.242;20.900;2022-12-29T08:50:53;9.47;;;3.17;;
70675;SDS011;59069;52.242;20.900;2022-12-29T08:53:19;9.20;;;3.25;;
70675;SDS011;59069;52.242;20.900;2022-12-29T08:55:45;10.00;;;3.60;;
70675;SDS011;59069;52.242;20.900;2022-12-29T08:58:12;8.73;;;3.27;;
70675;SDS011;59069;52.242;20.900;2022-12-29T09:00:40;8.57;;;3.10;;
70675;SDS011;59069;52.242;20.900;2022-12-29T09:03:06;9.60;;;3.03;;
70675;SDS011;59069;52.242;20.900;2022-12-29T09:05:32;9.98;;;3.40;;
70675;SDS011;59069;52.242;20.900;2022-12-29T09:07:57;8.90;;;2.83;;
70675;SDS011;59069;52.242;20.900;2022-12-29T09:10:23;9.50;;;3.27;;
70675;SDS011;59069;52.242;20.900;2022-12-29T09:12:49;10.65;;;3.10;;
70675;SDS011;59069;52.242;20.900;2022-12-29T09:15:14;9.23;;;3.13;;
70675;SDS011;59069;52.242;20.900;2022-12-29T09:17:40;8.68;;;3.33;;
70675;SDS011;59069;52.242;20.900;2022-12-29T09:20:14;11.82;;;3.90;;
70675;SDS011;59069;52.242;20.900;2022-12-29T09:22:42;9.70;;;3.67;;
70675;SDS011;59069;52.242;20.900;2022-12-29T09:25:08;12.63;;;5.65;;
70675;SDS011;59069;52.242;20.900;2022-12-29T09:27:34;14.30;;;3.40;;
70675;SDS011;59069;52.242;20.900;2022-12-29T09:30:01;10.00;;;3.50;;
70675;SDS011;59069;52.242;20.900;2022-12-29T09:32:27;11.20;;;3.20;;
70675;SDS011;59069;52.242;20.900;2022-12-29T09:34:53;8.67;;;2.90;;
70675;SDS011;59069;52.242;20.900;2022-12-29T09:37:18;9.50;;;2.75;;
70675;SDS011;59069;52.242;20.900;2022-12-29T09:39:44;9.40;;;2.80;;
70675;SDS011;59069;52.242;20.900;2022-12-29T09:42:15;10.52;;;3.00;;
70675;SDS011;59069;52.242;20.900;2022-12-29T09:47:30;10.55;;;3.40;;
70675;SDS011;59069;52.242;20.900;2022-12-29T09:52:54;9.02;;;3.28;;
70675;SDS011;59069;52.242;20.900;2022-12-29T09:55:50;9.00;;;2.73;;
70675;SDS011;59069;52.242;20.900;2022-12-29T10:03:52;9.73;;;3.35;;
70675;SDS011;59069;52.242;20.900;2022-12-29T10:09:13;9.40;;;2.93;;
70675;SDS011;59069;52.242;20.900;2022-12-29T10:25:56;9.85;;;3.38;;
70675;SDS011;59069;52.242;20.900;2022-12-29T10:28:24;8.88;;;3.05;;
70675;SDS011;59069;52.242;20.900;2022-12-29T10:31:09;9.45;;;3.35;;
70675;SDS011;59069;52.242;20.900;2022-12-29T10:33:44;9.35;;;3.05;;
70675;SDS011;59069;52.242;20.900;2022-12-29T10:36:57;9.20;;;3.17;;
70675;SDS011;59069;52.242;20.900;2022-12-29T10:44:55;9.48;;;3.00;;
70675;SDS011;59069;52.242;20.900;2022-12-29T10:47:25;9.50;;;3.22;;
70675;SDS011;59069;52.242;20.900;2022-12-29T10:49:54;10.63;;;4.10;;
70675;SDS011;59069;52.242;20.900;2022-12-29T10:52:23;11.63;;;3.45;;
70675;SDS011;59069;52.242;20.900;2022-12-29T10:54:53;9.48;;;3.50;;
70675;SDS011;59069;52.242;20.900;2022-12-29T10:57:37;9.63;;;3.00;;
70675;SDS011;59069;52.242;20.900;2022-12-29T11:00:16;12.60;;;3.50;;
70675;SDS011;59069;52.242;20.900;2022-12-29T11:08:26;9.02;;;3.67;;
70675;SDS011;59069;52.242;20.900;2022-12-29T11:11:03;9.23;;;3.58;;
70675;SDS011;59069;52.242;20.900;2022-12-29T11:14:18;10.98;;;3.90;;
70675;SDS011;59069;52.242;20.900;2022-12-29T11:16:31;11.13;;;3.53;;
70675;SDS011;59069;52.242;20.900;2022-12-29T11:18:59;12.38;;;3.95;;
70675;SDS011;59069;52.242;20.900;2022-12-29T11:21:35;12.77;;;3.63;;
70675;SDS011;59069;52.242;20.900;2022-12-29T11:24:26;10.48;;;3.88;;
70675;SDS011;59069;52.242;20.900;2022-12-29T11:26:54;11.55;;;3.33;;
70675;SDS011;59069;52.242;20.900;2022-12-29T11:29:39;9.37;;;3.13;;
70675;SDS011;59069;52.242;20.900;2022-12-29T11:32:19;13.52;;;3.92;;
70675;SDS011;59069;52.242;20.900;2022-12-29T11:34:47;10.13;;;3.47;;
70675;SDS011;59069;52.242;20.900;2022-12-29T11:37:15;11.55;;;3.55;;
70675;SDS011;59069;52.242;20.900;2022-12-29T11:40:02;10.75;;;4.00;;
70675;SDS011;59069;52.242;20.900;2022-12-29T11:45:33;12.43;;;3.65;;
70675;SDS011;59069;52.242;20.900;2022-12-29T11:48:06;10.20;;;3.88;;
70675;SDS011;59069;52.242;20.900;2022-12-29T11:50:36;10.77;;;3.78;;
70675;SDS011;59069;52.242;20.900;2022-12-29T11:55:55;10.53;;;3.70;;
70675;SDS011;59069;52.242;20.900;2022-12-29T11:58:33;8.95;;;3.30;;
70675;SDS011;59069;52.242;20.900;2022-12-29T12:01:12;11.02;;;3.55;;
70675;SDS011;59069;52.242;20.900;2022-12-29T12:04:03;11.43;;;3.92;;
70675;SDS011;59069;52.242;20.900;2022-12-29T12:06:42;9.93;;;3.50;;
70675;SDS011;59069;52.242;20.900;2022-12-29T12:09:31;12.20;;;3.80;;
70675;SDS011;59069;52.242;20.900;2022-12-29T12:11:59;12.77;;;3.80;;
70675;SDS011;59069;52.242;20.900;2022-12-29T12:14:28;9.50;;;3.67;;
70675;SDS011;59069;52.242;20.900;2022-12-29T12:19:40;11.23;;;3.78;;
70675;SDS011;59069;52.242;20.900;2022-12-29T12:22:31;11.53;;;3.73;;
70675;SDS011;59069;52.242;20.900;2022-12-29T12:25:08;11.80;;;3.92;;
70675;SDS011;59069;52.242;20.900;2022-12-29T12:30:24;9.40;;;3.47;;
70675;SDS011;59069;52.242;20.900;2022-12-29T12:44:22;8.93;;;3.50;;
70675;SDS011;59069;52.242;20.900;2022-12-29T12:52:38;11.48;;;3.40;;
70675;SDS011;59069;52.242;20.900;2022-12-29T12:58:35;11.95;;;3.65;;
70675;SDS011;59069;52.242;20.900;2022-12-29T13:01:05;10.57;;;3.65;;
70675;SDS011;59069;52.242;20.900;2022-12-29T13:18:02;11.67;;;3.70;;
70675;SDS011;59069;52.242;20.900;2022-12-29T13:20:55;11.43;;;3.63;;
70675;SDS011;59069;52.242;20.900;2022-12-29T13:23:31;10.50;;;3.30;;
70675;SDS011;59069;52.242;20.900;2022-12-29T13:26:18;10.93;;;3.72;;
70675;SDS011;59069;52.242;20.900;2022-12-29T13:31:24;10.57;;;3.67;;
70675;SDS011;59069;52.242;20.900;2022-12-29T13:37:15;9.38;;;3.83;;
70675;SDS011;59069;52.242;20.900;2022-12-29T13:39:54;13.00;;;3.88;;
70675;SDS011;59069;52.242;20.900;2022-12-29T13:42:24;10.85;;;3.70;;
70675;SDS011;59069;52.242;20.900;2022-12-29T13:44:58;11.40;;;3.40;;
70675;SDS011;59069;52.242;20.900;2022-12-29T13:47:28;10.35;;;3.20;;
70675;SDS011;59069;52.242;20.900;2022-12-29T13:50:05;11.40;;;3.22;;
70675;SDS011;59069;52.242;20.900;2022-12-29T13:55:37;12.73;;;3.63;;
70675;SDS011;59069;52.242;20.900;2022-12-29T13:58:12;11.30;;;3.37;;
70675;SDS011;59069;52.242;20.900;2022-12-29T14:00:56;10.05;;;3.42;;
70675;SDS011;59069;52.242;20.900;2022-12-29T14:03:42;12.45;;;3.75;;
70675;SDS011;59069;52.242;20.900;2022-12-29T14:06:20;11.07;;;3.90;;
70675;SDS011;59069;52.242;20.900;2022-12-29T14:08:48;10.52;;;4.07;;
70675;SDS011;59069;52.242;20.900;2022-12-29T14:11:15;10.63;;;3.40;;
70675;SDS011;59069;52.242;20.900;2022-12-29T14:13:43;11.57;;;3.92;;
70675;SDS011;59069;52.242;20.900;2022-12-29T14:16:24;13.15;;;3.65;;
70675;SDS011;59069;52.242;20.900;2022-12-29T14:19:10;10.68;;;3.45;;
70675;SDS011;59069;52.242;20.900;2022-12-29T14:21:39;10.60;;;4.00;;
70675;SDS011;59069;52.242;20.900;2022-12-29T14:34:53;10.88;;;4.03;;
70675;SDS011;59069;52.242;20.900;2022-12-29T14:37:36;10.43;;;3.73;;
70675;SDS011;59069;52.242;20.900;2022-12-29T14:40:17;11.27;;;4.18;;
70675;SDS011;59069;52.242;20.900;2022-12-29T14:42:48;11.35;;;3.83;;
70675;SDS011;59069;52.242;20.900;2022-12-29T14:47:48;10.43;;;3.80;;
70675;SDS011;59069;52.242;20.900;2022-12-29T14:52:54;10.82;;;3.70;;
70675;SDS011;59069;52.242;20.900;2022-12-29T14:55:43;11.53;;;4.10;;
70675;SDS011;59069;52.242;20.900;2022-12-29T14:58:28;10.18;;;3.97;;
70675;SDS011;59069;52.242;20.900;2022-12-29T15:00:57;10.95;;;3.63;;
70675;SDS011;59069;52.242;20.900;2022-12-29T15:03:32;9.45;;;3.70;;
70675;SDS011;59069;52.242;20.900;2022-12-29T15:06:11;11.18;;;3.95;;
70675;SDS011;59069;52.242;20.900;2022-12-29T15:11:21;10.63;;;3.63;;
70675;SDS011;59069;52.242;20.900;2022-12-29T15:16:54;13.63;;;3.97;;
70675;SDS011;59069;52.242;20.900;2022-12-29T15:19:21;9.67;;;3.67;;
70675;SDS011;59069;52.242;20.900;2022-12-29T15:21:47;11.57;;;4.10;;
70675;SDS011;59069;52.242;20.900;2022-12-29T15:24:13;11.95;;;4.38;;
70675;SDS011;59069;52.242;20.900;2022-12-29T15:26:44;10.63;;;3.97;;
70675;SDS011;59069;52.242;20.900;2022-12-29T15:29:28;10.27;;;4.00;;
70675;SDS011;59069;52.242;20.900;2022-12-29T15:32:16;12.35;;;4.57;;
70675;SDS011;59069;52.242;20.900;2022-12-29T15:34:44;11.18;;;3.97;;
70675;SDS011;59069;52.242;20.900;2022-12-29T15:37:19;11.02;;;4.35;;
70675;SDS011;59069;52.242;20.900;2022-12-29T15:39:50;13.77;;;4.53;;
70675;SDS011;59069;52.242;20.900;2022-12-29T15:42:27;11.68;;;4.20;;
70675;SDS011;59069;52.242;20.900;2022-12-29T15:45:08;12.85;;;3.72;;
70675;SDS011;59069;52.242;20.900;2022-12-29T15:47:37;11.05;;;4.18;;
70675;SDS011;59069;52.242;20.900;2022-12-29T15:50:05;15.02;;;4.53;;
70675;SDS011;59069;52.242;20.900;2022-12-29T15:52:34;13.83;;;4.10;;
70675;SDS011;59069;52.242;20.900;2022-12-29T15:55:04;15.00;;;4.68;;
70675;SDS011;59069;52.242;20.900;2022-12-29T15:57:31;10.27;;;4.10;;
70675;SDS011;59069;52.242;20.900;2022-12-29T16:00:03;12.43;;;4.90;;
70675;SDS011;59069;52.242;20.900;2022-12-29T16:02:46;12.95;;;4.22;;
70675;SDS011;59069;52.242;20.900;2022-12-29T16:05:16;12.17;;;4.70;;
70675;SDS011;59069;52.242;20.900;2022-12-29T16:07:55;12.80;;;4.25;;
70675;SDS011;59069;52.242;20.900;2022-12-29T16:10:27;13.38;;;4.60;;
70675;SDS011;59069;52.242;20.900;2022-12-29T16:13:05;12.00;;;4.88;;
70675;SDS011;59069;52.242;20.900;2022-12-29T16:16:09;11.10;;;3.90;;
70675;SDS011;59069;52.242;20.900;2022-12-29T16:18:49;11.13;;;4.38;;
70675;SDS011;59069;52.242;20.900;2022-12-29T16:21:19;12.23;;;4.57;;
70675;SDS011;59069;52.242;20.900;2022-12-29T16:23:50;11.43;;;4.32;;
70675;SDS011;59069;52.242;20.900;2022-12-29T16:26:18;10.90;;;4.45;;
70675;SDS011;59069;52.242;20.900;2022-12-29T16:28:47;10.73;;;4.00;;
70675;SDS011;59069;52.242;20.900;2022-12-29T16:31:36;13.02;;;5.03;;
70675;SDS011;59069;52.242;20.900;2022-12-29T16:39:56;14.57;;;4.95;;
70675;SDS011;59069;52.242;20.900;2022-12-29T16:42:59;13.57;;;4.60;;
70675;SDS011;59069;52.242;20.900;2022-12-29T16:50:40;11.10;;;4.20;;
70675;SDS011;59069;52.242;20.900;2022-12-29T16:53:18;15.13;;;4.90;;
70675;SDS011;59069;52.242;20.900;2022-12-29T16:55:47;10.95;;;4.57;;
70675;SDS011;59069;52.242;20.900;2022-12-29T16:58:32;10.30;;;3.90;;
70675;SDS011;59069;52.242;20.900;2022-12-29T17:01:00;12.97;;;4.23;;
70675;SDS011;59069;52.242;20.900;2022-12-29T17:03:33;13.77;;;4.35;;
70675;SDS011;59069;52.242;20.900;2022-12-29T17:06:03;11.98;;;4.20;;
70675;SDS011;59069;52.242;20.900;2022-12-29T17:08:38;11.90;;;4.20;;
70675;SDS011;59069;52.242;20.900;2022-12-29T17:11:08;11.83;;;3.90;;
70675;SDS011;59069;52.242;20.900;2022-12-29T17:16:43;11.18;;;4.43;;
70675;SDS011;59069;52.242;20.900;2022-12-29T17:19:11;12.70;;;5.10;;
70675;SDS011;59069;52.242;20.900;2022-12-29T17:21:42;11.63;;;4.70;;
70675;SDS011;59069;52.242;20.900;2022-12-29T17:24:17;12.47;;;4.40;;
70675;SDS011;59069;52.242;20.900;2022-12-29T17:26:44;12.55;;;4.78;;
70675;SDS011;59069;52.242;20.900;2022-12-29T17:29:20;11.00;;;4.28;;
70675;SDS011;59069;52.242;20.900;2022-12-29T17:31:54;12.82;;;4.03;;
70675;SDS011;59069;52.242;20.900;2022-12-29T17:34:19;13.57;;;5.03;;
70675;SDS011;59069;52.242;20.900;2022-12-29T17:36:45;11.88;;;4.88;;
70675;SDS011;59069;52.242;20.900;2022-12-29T17:39:11;13.50;;;5.10;;
70675;SDS011;59069;52.242;20.900;2022-12-29T17:41:36;12.52;;;5.00;;